Time;durP1;ratioP1;P1;durP2;ratioP2;P2;SDS_P1;SDS_P2;PMS_P1;PMS_P2;Temp;Humidity;BMP_temperature;BMP_pressure;BME280_temperature;BME280_humidity;BME280_pressure;Samples;Min_cycle;Max_cycle;Signal;HPM_P1;HPM_P2
2022/05/20 00:01:03;;;;;;;10.95;7.68;;;12.80;99.90;;;;;;5137811;27;20136;-80
2022/05/20 00:03:31;;;;;;;15.10;7.95;;;12.80;99.90;;;;;;5139864;27;20095;-80
2022/05/20 00:05:58;;;;;;;19.55;8.98;;;12.80;99.90;;;;;;5139883;27;20445;-80
2022/05/20 00:08:23;;;;;;;14.05;8.45;;;12.80;99.90;;;;;;5139006;27;20050;-80
2022/05/20 00:10:53;;;;;;;16.17;8.52;;;12.80;99.90;;;;;;5139701;27;20402;-80
2022/05/20 00:13:25;;;;;;;13.63;8.07;;;12.80;99.90;;;;;;5150043;27;20046;-80
2022/05/20 00:15:51;;;;;;;11.98;8.73;;;12.90;99.90;;;;;;5157359;27;20045;-80
2022/05/20 00:18:17;;;;;;;16.95;8.55;;;12.80;99.90;;;;;;5129810;27;20387;-80
2022/05/20 00:20:43;;;;;;;12.60;8.15;;;12.80;99.90;;;;;;5137179;27;20042;-80
2022/05/20 00:23:10;;;;;;;11.20;8.10;;;12.80;99.90;;;;;;5119009;27;20509;-80
2022/05/20 00:25:48;;;;;;;14.63;7.97;;;12.80;99.90;;;;;;5136954;27;20038;-80
2022/05/20 00:28:20;;;;;;;12.10;7.82;;;12.80;99.90;;;;;;5133417;27;20043;-80
2022/05/20 00:30:51;;;;;;;13.30;8.23;;;12.80;99.90;;;;;;5121070;27;20043;-80
2022/05/20 00:33:17;;;;;;;16.75;8.43;;;12.80;99.90;;;;;;5133857;27;20110;-80
2022/05/20 00:35:45;;;;;;;15.13;9.02;;;12.70;99.90;;;;;;5133044;27;20043;-80
2022/05/20 00:38:12;;;;;;;12.73;9.02;;;12.70;99.90;;;;;;5108440;27;20278;-80
2022/05/20 00:40:38;;;;;;;15.10;9.52;;;12.70;99.90;;;;;;5136740;27;20398;-80
2022/05/20 00:43:13;;;;;;;16.27;9.00;;;12.70;99.90;;;;;;5120866;27;20054;-80
2022/05/20 00:45:41;;;;;;;14.75;8.77;;;12.70;99.90;;;;;;5139879;27;20057;-80
2022/05/20 00:48:07;;;;;;;12.93;8.65;;;12.70;99.90;;;;;;5124401;27;20035;-80
2022/05/20 00:50:34;;;;;;;15.68;8.63;;;12.70;99.90;;;;;;5137996;27;20086;-80
2022/05/20 00:53:01;;;;;;;13.25;8.88;;;12.70;99.90;;;;;;5155714;27;20103;-80
2022/05/20 00:55:27;;;;;;;18.65;9.10;;;12.70;99.90;;;;;;5142516;27;20043;-80
2022/05/20 00:58:00;;;;;;;11.35;9.38;;;12.70;99.90;;;;;;5138924;27;20133;-80
2022/05/20 01:00:29;;;;;;;17.77;9.70;;;12.70;99.90;;;;;;5138503;27;20090;-80
2022/05/20 01:03:01;;;;;;;12.82;9.80;;;12.60;99.90;;;;;;5136620;27;20039;-80
2022/05/20 01:05:48;;;;;;;12.32;8.63;;;12.60;99.90;;;;;;5123076;27;20039;-80
2022/05/20 01:08:23;;;;;;;19.40;10.13;;;12.60;99.90;;;;;;5136633;27;20047;-80
2022/05/20 01:10:49;;;;;;;15.05;8.80;;;12.60;99.90;;;;;;5118045;27;20483;-80
2022/05/20 01:13:20;;;;;;;19.88;9.55;;;12.50;99.90;;;;;;5152483;27;20125;-80
2022/05/20 01:15:47;;;;;;;14.68;10.45;;;12.60;99.90;;;;;;5123108;27;20466;-80
2022/05/20 01:18:14;;;;;;;18.90;10.60;;;12.60;99.90;;;;;;5133585;27;20051;-80
2022/05/20 01:20:44;;;;;;;18.35;10.73;;;12.60;99.90;;;;;;5155940;27;20046;-80
2022/05/20 01:23:11;;;;;;;24.63;12.25;;;12.60;99.90;;;;;;5136091;27;20451;-80
2022/05/20 01:25:42;;;;;;;21.35;11.50;;;12.60;99.90;;;;;;5143503;27;20043;-80
2022/05/20 01:28:08;;;;;;;22.42;12.07;;;12.60;99.90;;;;;;5149930;27;20103;-80
2022/05/20 01:30:35;;;;;;;20.73;12.23;;;12.60;99.90;;;;;;5156568;27;20050;-80
2022/05/20 01:33:05;;;;;;;24.33;11.43;;;12.60;99.90;;;;;;5153720;27;20046;-80
2022/05/20 01:35:39;;;;;;;19.38;12.27;;;12.60;99.90;;;;;;5128237;27;20043;-80
2022/05/20 01:38:06;;;;;;;21.90;12.40;;;12.60;99.90;;;;;;5116967;27;20092;-80
2022/05/20 01:40:43;;;;;;;19.38;12.02;;;12.60;99.90;;;;;;5117216;27;20050;-80
2022/05/20 01:43:21;;;;;;;21.25;12.55;;;12.60;99.90;;;;;;5137873;27;20108;-80
2022/05/20 01:45:50;;;;;;;22.80;13.45;;;12.60;99.90;;;;;;5125377;27;20050;-80
2022/05/20 01:48:25;;;;;;;16.50;12.00;;;12.60;99.90;;;;;;5134535;27;20494;-80
2022/05/20 01:50:55;;;;;;;17.73;10.93;;;12.60;99.90;;;;;;5135144;27;20047;-80
2022/05/20 01:53:39;;;;;;;17.15;10.60;;;12.60;99.90;;;;;;5117208;27;20043;-80
2022/05/20 01:56:26;;;;;;;16.33;11.45;;;12.60;99.90;;;;;;5123309;27;20047;-80
2022/05/20 01:59:00;;;;;;;19.90;12.32;;;12.70;99.90;;;;;;5117008;27;20063;-80
2022/05/20 02:01:35;;;;;;;29.05;13.60;;;12.70;99.90;;;;;;5122095;27;20043;-81
2022/05/20 02:04:06;;;;;;;19.27;11.70;;;12.60;99.90;;;;;;5155915;27;20528;-80
2022/05/20 02:06:45;;;;;;;15.93;10.10;;;12.60;99.90;;;;;;5125290;27;20043;-80
2022/05/20 02:09:19;;;;;;;18.88;11.70;;;12.70;99.90;;;;;;5121558;27;20424;-80
2022/05/20 02:11:49;;;;;;;20.40;12.75;;;12.70;99.90;;;;;;5134197;27;20554;-80
2022/05/20 02:14:21;;;;;;;19.17;11.50;;;12.70;99.90;;;;;;5137304;27;20030;-80
2022/05/20 02:16:57;;;;;;;20.73;11.30;;;12.70;99.90;;;;;;5133743;27;20382;-80
2022/05/20 02:19:36;;;;;;;24.63;12.45;;;12.60;99.90;;;;;;5115909;27;20039;-80
2022/05/20 02:22:07;;;;;;;21.05;12.40;;;12.60;99.90;;;;;;5115638;27;20080;-80
2022/05/20 02:24:35;;;;;;;20.45;11.95;;;12.60;99.90;;;;;;5115942;27;20043;-80
2022/05/20 02:27:05;;;;;;;19.95;12.52;;;12.60;99.90;;;;;;5139237;27;20046;-80
2022/05/20 02:29:47;;;;;;;17.42;10.85;;;12.50;99.90;;;;;;5137028;27;20441;-80
2022/05/20 02:32:30;;;;;;;20.27;12.73;;;12.50;99.90;;;;;;5136915;27;20042;-80
2022/05/20 02:34:56;;;;;;;15.48;10.88;;;12.40;99.90;;;;;;5153231;27;20047;-80
2022/05/20 02:37:28;;;;;;;19.25;11.52;;;12.40;99.90;;;;;;5131702;27;20051;-80
2022/05/20 02:39:55;;;;;;;17.08;12.43;;;12.40;99.90;;;;;;5133070;27;20046;-80
2022/05/20 02:42:21;;;;;;;18.92;10.82;;;12.30;99.90;;;;;;5155402;27;20039;-80
2022/05/20 02:44:48;;;;;;;20.38;11.50;;;12.30;99.90;;;;;;5133889;27;20090;-80
2022/05/20 02:47:14;;;;;;;17.08;12.63;;;12.30;99.90;;;;;;5127237;27;20134;-80
2022/05/20 02:49:40;;;;;;;20.77;13.77;;;12.30;99.90;;;;;;5115406;28;20043;-80
2022/05/20 02:52:07;;;;;;;20.98;13.60;;;12.20;99.90;;;;;;5098240;28;20046;-80
2022/05/20 02:54:33;;;;;;;22.52;14.40;;;12.20;99.90;;;;;;5115446;28;20054;-79
2022/05/20 02:56:59;;;;;;;19.80;12.35;;;12.10;99.90;;;;;;5140371;27;20047;-79
2022/05/20 03:04:53;;;;;;;31.23;11.97;;;12.00;99.90;;;;;;5115263;28;20058;-79
2022/05/20 03:07:19;;;;;;;22.38;13.63;;;12.00;99.90;;;;;;5141668;27;20051;-79
2022/05/20 03:09:45;;;;;;;18.85;12.13;;;11.90;99.90;;;;;;5099245;28;20050;-79
2022/05/20 03:12:13;;;;;;;15.27;11.55;;;11.90;99.90;;;;;;5114660;27;20084;-79
2022/05/20 03:14:39;;;;;;;14.35;9.07;;;11.80;99.90;;;;;;5119692;27;20054;-79
2022/05/20 03:17:06;;;;;;;19.30;12.25;;;11.80;99.90;;;;;;5138320;27;20096;-79
2022/05/20 03:19:32;;;;;;;18.83;12.15;;;11.70;99.90;;;;;;5118914;27;20501;-79
2022/05/20 03:22:00;;;;;;;18.23;11.57;;;11.70;99.90;;;;;;5138353;27;20071;-79
2022/05/20 03:24:26;;;;;;;21.33;13.07;;;11.70;99.90;;;;;;5119987;27;20046;-79
2022/05/20 03:26:52;;;;;;;19.45;13.50;;;11.60;99.90;;;;;;5142121;27;20031;-79
2022/05/20 03:29:18;;;;;;;24.40;13.07;;;11.60;99.90;;;;;;5158947;27;20554;-79
2022/05/20 03:31:44;;;;;;;19.95;14.15;;;11.60;99.90;;;;;;5150177;27;20026;-79
2022/05/20 03:34:11;;;;;;;26.05;13.23;;;11.60;99.90;;;;;;5139478;27;20091;-79
2022/05/20 03:36:42;;;;;;;20.90;14.13;;;11.50;99.90;;;;;;5124946;27;20050;-79
2022/05/20 03:39:10;;;;;;;19.95;12.68;;;11.50;99.90;;;;;;5101548;27;20512;-79
2022/05/20 03:41:37;;;;;;;16.92;11.80;;;11.50;99.90;;;;;;5149128;27;20079;-79
2022/05/20 03:44:05;;;;;;;13.25;10.50;;;11.50;99.90;;;;;;5157042;27;20050;-79
2022/05/20 03:46:31;;;;;;;12.27;8.98;;;11.50;99.90;;;;;;5139446;27;20060;-79
2022/05/20 03:48:59;;;;;;;16.67;10.02;;;11.40;99.90;;;;;;5157196;27;20519;-78
2022/05/20 03:51:25;;;;;;;21.52;12.90;;;11.40;99.90;;;;;;5135622;27;20051;-79
2022/05/20 03:53:51;;;;;;;24.70;12.27;;;11.30;99.90;;;;;;5136932;27;20070;-79
2022/05/20 03:56:17;;;;;;;16.35;12.93;;;11.40;99.90;;;;;;5139793;27;20042;-79
2022/05/20 03:58:43;;;;;;;21.35;12.82;;;11.30;99.90;;;;;;5147358;27;20055;-79
2022/05/20 04:03:55;;;;;;;18.75;13.32;;;11.30;99.90;;;;;;5128226;27;20103;-79
2022/05/20 04:06:21;;;;;;;17.55;11.60;;;11.30;99.90;;;;;;5127895;27;20050;-79
2022/05/20 04:08:47;;;;;;;13.65;12.02;;;11.30;99.90;;;;;;5135951;27;20364;-79
2022/05/20 04:11:13;;;;;;;17.52;11.50;;;11.20;99.90;;;;;;5119085;27;20054;-79
2022/05/20 04:13:40;;;;;;;21.30;13.45;;;11.20;99.90;;;;;;5125182;27;20120;-79
2022/05/20 04:16:11;;;;;;;21.25;14.60;;;11.10;99.90;;;;;;5129477;27;20079;-79
2022/05/20 04:18:38;;;;;;;17.35;13.68;;;11.20;99.90;;;;;;5118306;27;20042;-79
2022/05/20 04:21:04;;;;;;;13.10;10.70;;;11.10;99.90;;;;;;5137019;27;20486;-79
2022/05/20 04:23:31;;;;;;;13.52;11.60;;;11.10;99.90;;;;;;5121356;27;20110;-79
2022/05/20 04:25:57;;;;;;;13.48;11.77;;;11.20;99.90;;;;;;5131532;27;20535;-79
2022/05/20 04:28:23;;;;;;;14.82;11.55;;;11.20;99.90;;;;;;5117423;27;20074;-78
2022/05/20 04:30:55;;;;;;;21.52;13.63;;;11.20;99.90;;;;;;5118586;27;20047;-78
2022/05/20 04:33:21;;;;;;;22.70;14.93;;;11.20;99.90;;;;;;5126942;27;20078;-78
2022/05/20 04:35:46;;;;;;;24.95;13.88;;;11.20;99.90;;;;;;5117344;27;20042;-79
2022/05/20 04:38:12;;;;;;;18.52;13.15;;;11.20;99.90;;;;;;5146707;27;20050;-78
2022/05/20 04:40:38;;;;;;;17.55;13.77;;;11.20;99.90;;;;;;5157289;27;20050;-79
2022/05/20 04:48:32;;;;;;;19.20;14.10;;;11.40;99.90;;;;;;5130039;27;20046;-79
2022/05/20 04:50:58;;;;;;;21.83;15.05;;;11.50;99.90;;;;;;5137927;27;20401;-78
2022/05/20 04:56:08;;;;;;;21.60;14.85;;;11.60;99.90;;;;;;5143802;27;20054;-79
2022/05/20 04:58:34;;;;;;;29.40;16.83;;;11.70;99.90;;;;;;5153980;27;20042;-79
2022/05/20 05:01:00;;;;;;;15.70;14.10;;;11.80;99.90;;;;;;5138907;27;20045;-79
2022/05/20 05:03:26;;;;;;;18.83;13.90;;;11.80;99.90;;;;;;5125391;27;20047;-79
2022/05/20 05:05:51;;;;;;;25.33;16.42;;;11.90;99.90;;;;;;5133712;27;20054;-79
2022/05/20 05:08:17;;;;;;;18.65;16.27;;;11.90;99.90;;;;;;5136206;27;20118;-79
2022/05/20 05:10:44;;;;;;;18.52;15.25;;;11.90;99.90;;;;;;5156030;27;20056;-79
2022/05/20 05:13:11;;;;;;;21.20;14.13;;;12.00;99.90;;;;;;5154881;27;20042;-79
2022/05/20 05:15:37;;;;;;;21.95;15.77;;;12.10;99.90;;;;;;5124186;27;20126;-80
2022/05/20 05:18:09;;;;;;;21.20;16.50;;;12.20;99.90;;;;;;5116307;27;20039;-79
2022/05/20 05:20:39;;;;;;;24.45;15.73;;;12.30;99.90;;;;;;5117580;27;20051;-79
2022/05/20 05:23:05;;;;;;;25.70;18.23;;;12.30;99.90;;;;;;5135713;27;20043;-79
2022/05/20 05:25:33;;;;;;;21.10;17.50;;;12.40;99.90;;;;;;5126402;27;20062;-79
2022/05/20 05:27:59;;;;;;;23.67;16.80;;;12.50;99.90;;;;;;5138353;27;20133;-79
2022/05/20 05:30:26;;;;;;;22.90;17.83;;;12.50;99.90;;;;;;5128531;27;20047;-79
2022/05/20 05:32:52;;;;;;;23.58;17.92;;;12.60;99.90;;;;;;5116511;27;20448;-80
2022/05/20 05:35:21;;;;;;;22.45;17.38;;;12.70;99.90;;;;;;5121526;27;20039;-80
2022/05/20 05:37:47;;;;;;;24.92;18.75;;;12.80;99.90;;;;;;5100130;27;20039;-80
2022/05/20 05:40:16;;;;;;;27.13;17.98;;;12.80;99.90;;;;;;5116243;27;20099;-80
2022/05/20 05:42:42;;;;;;;25.83;17.70;;;12.90;99.90;;;;;;5116901;27;20035;-80
2022/05/20 05:45:10;;;;;;;22.20;15.75;;;12.90;99.90;;;;;;5116924;27;20115;-80
2022/05/20 05:47:36;;;;;;;28.27;16.27;;;13.00;99.90;;;;;;5116350;27;20390;-80
2022/05/20 05:50:03;;;;;;;25.05;15.80;;;13.10;99.90;;;;;;5116933;27;20043;-80
2022/05/20 05:52:28;;;;;;;27.40;16.35;;;13.20;99.90;;;;;;5116873;27;20046;-80
2022/05/20 05:54:54;;;;;;;30.30;16.95;;;13.20;99.90;;;;;;5114372;27;20410;-80
2022/05/20 05:57:20;;;;;;;18.85;14.95;;;13.30;99.90;;;;;;5134117;27;20092;-80
2022/05/20 05:59:45;;;;;;;21.92;15.60;;;13.40;99.90;;;;;;5115782;27;20073;-80
2022/05/20 06:02:11;;;;;;;23.33;14.88;;;13.50;99.90;;;;;;5130055;27;20460;-80
2022/05/20 06:04:37;;;;;;;22.88;12.95;;;13.50;99.90;;;;;;5153188;27;20039;-80
2022/05/20 06:07:04;;;;;;;20.77;13.52;;;13.50;99.90;;;;;;5127167;27;20031;-80
2022/05/20 06:09:29;;;;;;;19.38;13.05;;;13.50;99.90;;;;;;5155955;27;20042;-80
2022/05/20 06:11:55;;;;;;;19.40;12.88;;;13.50;99.90;;;;;;5143163;27;20394;-80
2022/05/20 06:14:21;;;;;;;21.52;14.27;;;13.50;99.90;;;;;;5129729;27;20554;-80
2022/05/20 06:16:47;;;;;;;19.30;9.55;;;13.50;99.90;;;;;;5153721;27;20527;-80
2022/05/20 06:19:13;;;;;;;17.25;9.13;;;13.50;99.90;;;;;;5146902;27;20504;-80
2022/05/20 06:21:40;;;;;;;23.15;12.63;;;13.60;99.90;;;;;;5115881;27;20036;-80
2022/05/20 06:24:08;;;;;;;25.65;13.07;;;13.70;99.90;;;;;;5121293;27;20455;-80
2022/05/20 06:26:37;;;;;;;22.33;11.88;;;13.90;99.90;;;;;;5116539;27;20046;-80
2022/05/20 06:29:05;;;;;;;18.45;10.52;;;14.00;99.90;;;;;;5137213;27;20031;-80
2022/05/20 06:31:31;;;;;;;24.60;11.48;;;14.10;99.90;;;;;;5155454;27;20046;-79
2022/05/20 06:34:00;;;;;;;24.52;9.57;;;14.10;99.90;;;;;;5146518;27;20046;-79
2022/05/20 06:41:56;;;;;;;16.75;9.32;;;14.30;99.90;;;;;;5115264;27;20479;-79
2022/05/20 06:44:24;;;;;;;15.05;9.98;;;14.40;99.90;;;;;;5128929;27;20046;-80
2022/05/20 06:46:51;;;;;;;15.05;9.23;;;14.50;99.90;;;;;;5154226;27;20474;-79
2022/05/20 06:49:17;;;;;;;15.20;9.68;;;14.50;99.90;;;;;;5131888;27;20069;-80
2022/05/20 06:51:42;;;;;;;14.00;9.07;;;14.60;99.90;;;;;;5134520;27;20101;-80
2022/05/20 06:54:11;;;;;;;17.88;9.60;;;14.70;99.90;;;;;;5123371;28;20047;-80
2022/05/20 06:56:38;;;;;;;17.48;9.65;;;14.80;99.90;;;;;;5098319;27;20105;-80
2022/05/20 06:59:06;;;;;;;14.95;9.60;;;14.90;99.90;;;;;;5116067;28;20091;-80
2022/05/20 07:01:32;;;;;;;16.90;10.13;;;14.90;99.90;;;;;;5116306;28;20428;-80
2022/05/20 07:03:58;;;;;;;12.38;8.38;;;15.00;99.90;;;;;;5140218;27;20091;-80
2022/05/20 07:06:25;;;;;;;16.92;7.70;;;15.00;99.90;;;;;;5134483;28;20039;-80
2022/05/20 07:08:51;;;;;;;11.38;7.72;;;15.00;99.90;;;;;;5147983;27;20438;-80
2022/05/20 07:11:20;;;;;;;14.32;7.68;;;15.10;99.90;;;;;;5128124;28;20091;-81
2022/05/20 07:13:48;;;;;;;13.27;7.35;;;15.10;99.90;;;;;;5140713;27;20136;-80
2022/05/20 07:16:14;;;;;;;18.23;8.77;;;15.10;99.90;;;;;;5136504;27;20122;-80
2022/05/20 07:18:40;;;;;;;15.60;8.95;;;15.10;99.90;;;;;;5128269;28;20050;-80
2022/05/20 07:21:06;;;;;;;12.93;6.60;;;15.20;99.90;;;;;;5134328;28;20043;-80
2022/05/20 07:23:33;;;;;;;10.63;5.93;;;15.20;99.90;;;;;;5116812;27;20075;-81
2022/05/20 07:26:01;;;;;;;12.20;6.65;;;15.30;99.90;;;;;;5102049;27;20038;-81
2022/05/20 07:28:28;;;;;;;10.82;6.55;;;15.40;99.90;;;;;;5131758;27;20039;-81
2022/05/20 07:30:54;;;;;;;12.05;5.85;;;15.50;99.90;;;;;;5106205;27;20079;-80
2022/05/20 07:33:20;;;;;;;14.25;5.93;;;15.60;99.90;;;;;;5152099;27;20113;-80
2022/05/20 07:35:46;;;;;;;11.60;6.65;;;15.60;99.90;;;;;;5132345;28;20513;-78
2022/05/20 07:38:12;;;;;;;12.05;6.35;;;15.60;99.90;;;;;;5141895;27;20047;-78
2022/05/20 07:40:38;;;;;;;8.32;6.38;;;15.70;99.90;;;;;;5153644;27;20130;-78
2022/05/20 07:43:04;;;;;;;11.95;6.07;;;15.80;99.90;;;;;;5099020;28;20088;-78
2022/05/20 07:45:30;;;;;;;8.77;5.72;;;15.80;99.90;;;;;;5149357;27;20344;-78
2022/05/20 07:47:56;;;;;;;11.70;5.82;;;15.80;99.90;;;;;;5099355;28;20061;-78
2022/05/20 07:50:21;;;;;;;9.18;6.38;;;15.80;99.90;;;;;;5124951;27;20047;-78
2022/05/20 07:55:38;;;;;;;11.27;5.82;;;15.90;99.90;;;;;;5129778;27;20045;-79
2022/05/20 07:58:09;;;;;;;12.80;6.78;;;15.90;99.90;;;;;;5147045;27;20047;-79
2022/05/20 08:00:35;;;;;;;9.15;4.88;;;16.00;99.90;;;;;;5138346;27;20054;-80
2022/05/20 08:03:02;;;;;;;6.95;4.60;;;16.10;99.90;;;;;;5123237;27;20122;-79
2022/05/20 08:05:30;;;;;;;13.20;4.88;;;16.10;99.90;;;;;;5119070;27;20461;-79
2022/05/20 08:08:02;;;;;;;14.50;5.35;;;16.10;99.90;;;;;;5118400;27;20135;-79
2022/05/20 08:10:30;;;;;;;13.07;5.65;;;16.20;99.90;;;;;;5138777;27;20050;-78
2022/05/20 08:12:59;;;;;;;10.02;4.50;;;16.20;99.90;;;;;;5138206;27;20090;-79
2022/05/20 08:15:25;;;;;;;12.35;5.38;;;16.30;99.90;;;;;;5100280;27;20054;-79
2022/05/20 08:17:51;;;;;;;14.25;4.85;;;16.50;99.90;;;;;;5118519;27;20133;-79
2022/05/20 08:20:25;;;;;;;9.40;4.60;;;16.60;99.90;;;;;;5137202;27;20105;-79
2022/05/20 08:22:55;;;;;;;11.90;4.20;;;16.90;99.90;;;;;;5137515;27;20043;-79
2022/05/20 08:25:24;;;;;;;5.35;3.22;;;16.80;99.90;;;;;;5139346;27;20408;-80
2022/05/20 08:27:50;;;;;;;10.35;4.38;;;16.80;99.90;;;;;;5136621;27;20079;-80
2022/05/20 08:30:23;;;;;;;6.57;3.20;;;16.80;99.90;;;;;;5136885;27;20055;-79
2022/05/20 08:32:49;;;;;;;9.18;3.95;;;16.90;99.90;;;;;;5136935;27;20084;-79
2022/05/20 08:35:15;;;;;;;11.13;4.63;;;16.90;99.90;;;;;;5122095;27;20386;-78
2022/05/20 08:37:44;;;;;;;10.52;3.58;;;17.00;99.90;;;;;;5138628;27;20598;-78
2022/05/20 08:40:13;;;;;;;7.40;3.80;;;17.10;99.90;;;;;;5131836;27;20043;-78
2022/05/20 08:42:40;;;;;;;10.02;3.53;;;17.20;99.90;;;;;;5116669;27;20036;-77
2022/05/20 08:45:06;;;;;;;3.90;2.28;;;17.20;99.90;;;;;;5140753;27;20039;-77
2022/05/20 08:47:43;;;;;;;9.32;3.53;;;17.20;99.90;;;;;;5155851;27;20066;-77
2022/05/20 08:50:29;;;;;;;8.52;4.10;;;17.10;99.90;;;;;;5154102;27;20046;-78
2022/05/20 08:52:56;;;;;;;13.55;4.00;;;17.20;99.90;;;;;;5157395;27;20045;-77
2022/05/20 08:55:22;;;;;;;5.00;2.65;;;17.20;99.90;;;;;;5136892;27;20510;-77
2022/05/20 08:58:00;;;;;;;5.28;2.83;;;17.20;99.90;;;;;;5134243;27;20051;-78
2022/05/20 09:00:29;;;;;;;6.75;3.65;;;17.20;99.90;;;;;;5131455;27;20047;-78
2022/05/20 09:02:55;;;;;;;8.10;4.40;;;17.10;99.90;;;;;;5134192;27;20059;-77
2022/05/20 09:05:23;;;;;;;8.63;4.25;;;17.10;99.90;;;;;;5127553;27;20053;-79
2022/05/20 09:08:04;;;;;;;8.90;3.95;;;17.00;99.90;;;;;;5120321;27;20069;-79
2022/05/20 09:10:38;;;;;;;10.55;4.22;;;17.10;99.90;;;;;;5119102;27;20051;-79
2022/05/20 09:13:12;;;;;;;8.20;4.03;;;17.10;99.90;;;;;;5136285;27;20036;-78
2022/05/20 09:15:46;;;;;;;7.13;4.13;;;17.20;99.90;;;;;;5126861;27;20486;-79
2022/05/20 09:18:15;;;;;;;7.13;4.03;;;17.30;99.90;;;;;;5119400;27;20039;-79
2022/05/20 09:20:47;;;;;;;9.63;4.00;;;17.30;99.90;;;;;;5134683;27;20050;-78
2022/05/20 09:23:15;;;;;;;10.00;4.15;;;17.40;99.90;;;;;;5133611;27;20118;-78
2022/05/20 09:25:51;;;;;;;7.00;3.28;;;17.50;99.90;;;;;;5116808;27;20049;-79
2022/05/20 09:28:21;;;;;;;8.15;4.70;;;17.60;99.90;;;;;;5117627;27;20437;-79
2022/05/20 09:30:50;;;;;;;10.00;4.35;;;17.50;99.90;;;;;;5113463;28;20048;-78
2022/05/20 09:33:24;;;;;;;9.18;4.70;;;17.60;99.90;;;;;;5132386;27;20435;-79
2022/05/20 09:36:00;;;;;;;11.97;4.30;;;17.60;99.90;;;;;;5117409;27;20050;-79
2022/05/20 09:38:41;;;;;;;10.95;4.88;;;17.60;99.90;;;;;;5115006;27;20706;-78
2022/05/20 09:41:18;;;;;;;8.77;4.60;;;17.70;99.90;;;;;;5128914;27;20082;-78
2022/05/20 09:44:04;;;;;;;8.85;4.68;;;17.70;99.90;;;;;;5134626;27;20436;-78
2022/05/20 09:46:39;;;;;;;13.80;5.93;;;17.70;99.90;;;;;;5117138;27;20162;-78
2022/05/20 09:49:15;;;;;;;9.20;5.15;;;17.70;99.90;;;;;;5125726;27;20405;-79
2022/05/20 09:51:49;;;;;;;7.50;4.93;;;17.70;99.90;;;;;;5117683;27;20048;-78
2022/05/20 09:54:35;;;;;;;11.03;5.50;;;17.60;99.90;;;;;;5116981;27;20094;-78
2022/05/20 09:57:12;;;;;;;10.02;5.97;;;17.60;99.90;;;;;;5113381;27;20050;-77
2022/05/20 10:00:13;;;;;;;14.13;5.55;;;17.60;99.90;;;;;;5112104;28;20044;-77
2022/05/20 10:02:51;;;;;;;11.20;4.35;;;17.60;99.90;;;;;;5112677;27;20067;-77
2022/05/20 10:05:44;;;;;;;8.63;4.80;;;17.50;99.90;;;;;;5113464;28;20452;-77
2022/05/20 10:08:10;;;;;;;8.15;4.70;;;17.60;99.90;;;;;;5132335;27;20127;-77
2022/05/20 10:10:48;;;;;;;10.75;5.50;;;17.50;99.90;;;;;;5133623;27;20118;-77
2022/05/20 10:13:40;;;;;;;7.60;5.40;;;17.60;99.90;;;;;;5118672;27;20058;-76
2022/05/20 10:16:27;;;;;;;10.20;5.22;;;17.60;99.90;;;;;;5133008;27;20087;-77
2022/05/20 10:19:18;;;;;;;8.88;4.82;;;17.70;99.90;;;;;;5114320;28;20040;-77
2022/05/20 10:22:01;;;;;;;10.57;5.07;;;17.70;99.90;;;;;;5119902;27;20047;-77
2022/05/20 10:24:56;;;;;;;10.10;4.93;;;17.70;99.90;;;;;;5116873;27;20069;-77
2022/05/20 10:27:22;;;;;;;;;;;17.80;99.90;;;;;;5121769;27;20082;-77
2022/05/20 10:32:49;;;;;;;8.93;5.88;;;17.80;99.90;;;;;;5131107;27;20058;-77
2022/05/20 10:35:30;;;;;;;9.43;5.00;;;17.90;99.90;;;;;;5132345;27;20047;-77
2022/05/20 10:38:01;;;;;;;7.80;5.00;;;17.90;99.90;;;;;;5117161;27;20043;-77
2022/05/20 10:40:39;;;;;;;8.15;4.80;;;17.90;99.90;;;;;;5112622;28;20398;-77
2022/05/20 10:43:10;;;;;;;6.47;4.78;;;18.00;99.90;;;;;;5131036;27;20339;-76
2022/05/20 10:49:14;;;;;;;7.15;4.80;;;18.10;99.90;;;;;;5111222;28;20050;-76
2022/05/20 10:51:43;;;;;;;6.57;4.40;;;18.10;99.90;;;;;;5120702;27;20054;-77
2022/05/20 10:54:21;;;;;;;7.38;4.38;;;18.00;99.90;;;;;;5132980;27;20046;-77
2022/05/20 10:57:08;;;;;;;7.93;3.70;;;18.00;99.90;;;;;;5124052;28;20044;-77
2022/05/20 11:00:01;;;;;;;7.97;3.67;;;18.10;99.90;;;;;;5112296;28;20048;-77
2022/05/20 11:02:40;;;;;;;10.38;3.90;;;18.10;99.90;;;;;;5097028;28;20040;-77
2022/05/20 11:05:15;;;;;;;7.60;4.45;;;18.10;99.90;;;;;;5127097;28;20044;-78
2022/05/20 11:08:08;;;;;;;9.93;4.40;;;18.10;99.90;;;;;;5128138;28;20442;-77
2022/05/20 11:10:51;;;;;;;7.22;4.10;;;18.10;99.90;;;;;;5108982;28;20051;-77
2022/05/20 11:13:44;;;;;;;6.68;3.90;;;18.10;99.90;;;;;;5095552;28;20036;-77
2022/05/20 11:16:34;;;;;;;7.43;4.35;;;18.20;99.90;;;;;;5112968;28;20050;-77
2022/05/20 11:19:29;;;;;;;7.72;4.30;;;18.30;99.90;;;;;;5113610;28;20096;-78
2022/05/20 11:22:02;;;;;;;6.40;4.47;;;18.40;99.90;;;;;;5074942;28;20052;-77
2022/05/20 11:24:34;;;;;;;5.90;4.30;;;18.40;99.90;;;;;;5111064;28;20044;-77
2022/05/20 11:26:59;;;;;;;5.13;3.47;;;18.50;99.90;;;;;;5132734;28;20048;-77
2022/05/20 11:29:52;;;;;;;6.47;3.65;;;18.50;99.90;;;;;;5133646;27;20103;-77
2022/05/20 11:32:51;;;;;;;5.95;3.58;;;18.60;99.90;;;;;;5118147;28;20103;-78
2022/05/20 11:35:38;;;;;;;5.82;3.75;;;18.60;99.90;;;;;;5111113;28;20043;-77
2022/05/20 11:38:07;;;;;;;8.05;4.07;;;18.70;99.90;;;;;;5116558;28;20066;-78
2022/05/20 11:40:38;;;;;;;5.10;3.67;;;18.70;99.90;;;;;;5124889;27;20126;-78
2022/05/20 11:43:04;;;;;;;8.40;4.03;;;18.80;99.90;;;;;;5127167;27;20051;-77
2022/05/20 11:45:56;;;;;;;7.80;3.70;;;18.80;99.90;;;;;;5118159;27;20039;-77
2022/05/20 11:48:39;;;;;;;7.10;4.25;;;18.80;99.90;;;;;;5116101;28;20048;-78
2022/05/20 11:51:37;;;;;;;8.93;4.00;;;18.80;99.90;;;;;;5115931;27;20491;-77
2022/05/20 11:54:32;;;;;;;6.38;3.10;;;18.80;99.90;;;;;;5134121;27;20494;-77
2022/05/20 11:57:03;;;;;;;5.53;3.00;;;18.80;99.90;;;;;;5106832;27;20428;-78
2022/05/20 11:59:46;;;;;;;5.15;2.70;;;18.80;99.90;;;;;;5122718;27;20051;-78
2022/05/20 12:02:14;;;;;;;4.75;2.75;;;18.80;99.90;;;;;;5121148;27;20046;-77
2022/05/20 12:04:41;;;;;;;5.55;3.28;;;18.80;99.90;;;;;;5150602;27;20039;-77
2022/05/20 12:07:19;;;;;;;6.88;3.60;;;18.80;99.90;;;;;;5136827;27;20077;-78
2022/05/20 12:09:50;;;;;;;5.60;3.47;;;18.80;99.90;;;;;;5142046;27;20042;-78
2022/05/20 12:12:20;;;;;;;4.15;2.70;;;18.80;99.90;;;;;;5154850;27;20066;-77
2022/05/20 12:15:13;;;;;;;5.72;3.10;;;18.80;99.90;;;;;;5144254;27;20043;-77
2022/05/20 12:17:46;;;;;;;4.53;2.80;;;18.90;99.90;;;;;;5139609;27;20042;-77
2022/05/20 12:26:08;;;;;;;4.50;3.20;;;19.00;99.90;;;;;;5109166;27;20118;-77
2022/05/20 12:28:39;;;;;;;7.05;2.85;;;19.10;99.90;;;;;;5118893;27;20558;-77
2022/05/20 12:31:20;;;;;;;4.22;2.78;;;19.20;99.90;;;;;;5137063;27;20147;-77
2022/05/20 12:34:21;;;;;;;4.05;2.78;;;19.30;99.90;;;;;;5152205;27;20048;-77
2022/05/20 12:36:47;;;;;;;4.00;2.45;;;19.30;99.90;;;;;;5137696;27;20073;-78
2022/05/20 12:39:17;;;;;;;3.40;1.90;;;19.30;99.90;;;;;;5121080;27;20089;-78
2022/05/20 12:41:44;;;;;;;6.30;2.20;;;19.30;99.90;;;;;;5138442;27;20057;-80
2022/05/20 12:44:16;;;;;;;5.05;2.50;;;19.30;99.90;;;;;;5135261;27;20131;-77
2022/05/20 12:46:51;;;;;;;5.60;2.60;;;19.30;99.90;;;;;;5138906;27;20046;-78
2022/05/20 12:49:18;;;;;;;;;;;19.30;99.90;;;;;;5134678;27;20057;-78
2022/05/20 12:51:49;;;;;;;3.85;2.97;;;19.30;99.90;;;;;;5118009;27;19919;-77
2022/05/20 12:54:24;;;;;;;9.18;2.95;;;19.30;99.90;;;;;;5136733;27;20039;-78
2022/05/20 12:57:09;;;;;;;8.10;2.58;;;19.40;99.90;;;;;;5121975;27;20050;-77
2022/05/20 12:59:35;;;;;;;4.80;2.78;;;19.40;99.90;;;;;;5150992;27;20047;-79
2022/05/20 13:02:16;;;;;;;7.03;2.58;;;19.40;99.90;;;;;;5145851;27;20394;-76
2022/05/20 13:04:45;;;;;;;5.70;2.67;;;19.30;99.90;;;;;;5140746;27;20394;-78
2022/05/20 13:07:18;;;;;;;4.80;2.55;;;19.20;99.90;;;;;;5117656;27;20505;-77
2022/05/20 13:09:46;;;;;;;5.88;2.50;;;19.20;99.90;;;;;;5135567;27;20440;-79
2022/05/20 13:12:18;;;;;;;5.03;2.17;;;19.10;99.90;;;;;;5118405;27;20047;-77
2022/05/20 13:14:46;;;;;;;4.15;2.33;;;19.00;99.90;;;;;;5136187;27;20040;-77
2022/05/20 13:17:13;;;;;;;2.90;2.10;;;18.90;99.90;;;;;;5116474;27;20039;-78
2022/05/20 13:19:57;;;;;;;2.83;2.15;;;18.80;99.90;;;;;;5123707;27;20047;-78
2022/05/20 13:22:26;;;;;;;3.53;2.22;;;18.80;99.90;;;;;;5117018;27;20049;-79
2022/05/20 13:25:06;;;;;;;4.60;2.25;;;18.60;99.90;;;;;;5126691;27;20565;-78
2022/05/20 13:27:32;;;;;;;4.53;2.13;;;18.60;99.90;;;;;;5157076;27;20486;-78
2022/05/20 13:30:13;;;;;;;5.25;2.50;;;18.40;99.90;;;;;;5145007;27;20043;-79
2022/05/20 13:32:39;;;;;;;4.03;1.85;;;18.40;99.90;;;;;;5139661;27;20038;-77